Time;durP1;ratioP1;P1;durP2;ratioP2;P2;SDS_P1;SDS_P2;PMS_P1;PMS_P2;Temp;Humidity;BMP_temperature;BMP_pressure;BME280_temperature;BME280_humidity;BME280_pressure;Samples;Min_cycle;Max_cycle;Signal;HPM_P1;HPM_P2
2023/09/12 00:00:42;;;;;;;41.72;36.75;;;19.80;91.90;;;;;;5032880;28;20029;-47
2023/09/12 00:03:09;;;;;;;37.83;33.78;;;19.80;92.00;;;;;;5033638;28;20461;-47
2023/09/12 00:05:36;;;;;;;40.92;36.80;;;19.80;92.00;;;;;;5033826;28;20021;-47
2023/09/12 00:08:03;;;;;;;36.50;32.70;;;19.80;92.00;;;;;;5033867;28;20056;-46
2023/09/12 00:10:30;;;;;;;41.38;36.17;;;19.80;92.10;;;;;;5052784;28;20024;-49
2023/09/12 00:12:58;;;;;;;41.55;37.28;;;19.80;92.10;;;;;;5053856;28;20311;-48
2023/09/12 00:15:25;;;;;;;40.60;36.08;;;19.80;92.10;;;;;;5053593;28;20017;-47
2023/09/12 00:17:52;;;;;;;40.05;35.67;;;19.80;92.10;;;;;;5033331;28;20039;-46
2023/09/12 00:20:18;;;;;;;41.15;36.70;;;19.80;92.10;;;;;;5033614;28;20029;-47
2023/09/12 00:22:46;;;;;;;41.45;36.85;;;19.70;91.90;;;;;;5016061;28;20037;-46
2023/09/12 00:25:15;;;;;;;44.25;39.50;;;19.70;92.10;;;;;;5032921;28;20018;-49
2023/09/12 00:27:41;;;;;;;46.42;41.45;;;19.70;92.10;;;;;;5032797;28;20037;-51
2023/09/12 00:30:08;;;;;;;39.20;34.85;;;19.60;92.10;;;;;;5033369;28;20030;-47
2023/09/12 00:32:37;;;;;;;39.00;35.03;;;19.60;92.10;;;;;;4999732;28;20022;-47
2023/09/12 00:35:04;;;;;;;49.25;39.53;;;19.60;92.10;;;;;;5040217;28;20021;-47
2023/09/12 00:37:31;;;;;;;45.13;40.10;;;19.60;92.20;;;;;;5051743;28;20405;-48
2023/09/12 00:39:57;;;;;;;42.65;37.25;;;19.60;92.20;;;;;;5051466;28;20347;-47
2023/09/12 00:42:27;;;;;;;38.97;34.75;;;19.60;92.30;;;;;;5051468;28;20029;-49
2023/09/12 00:44:59;;;;;;;43.35;38.78;;;19.60;92.30;;;;;;5002605;28;20455;-48
2023/09/12 00:47:31;;;;;;;44.40;37.75;;;19.50;92.40;;;;;;5015695;28;20435;-48
2023/09/12 00:50:01;;;;;;;37.67;33.83;;;19.50;92.50;;;;;;5033158;28;20108;-47
2023/09/12 00:52:30;;;;;;;42.97;38.38;;;19.50;92.50;;;;;;5046347;28;20110;-48
2023/09/12 00:54:59;;;;;;;43.72;39.35;;;19.50;92.50;;;;;;5034455;28;20083;-47
2023/09/12 00:57:26;;;;;;;41.17;36.90;;;19.60;92.60;;;;;;5051506;28;20132;-53
2023/09/12 00:59:53;;;;;;;33.08;29.77;;;19.50;92.50;;;;;;5052705;28;20063;-52
2023/09/12 01:02:24;;;;;;;43.00;38.33;;;19.50;92.50;;;;;;5039751;28;20562;-47
2023/09/12 01:04:51;;;;;;;44.55;39.75;;;19.60;92.50;;;;;;5032732;28;20100;-48
2023/09/12 01:07:22;;;;;;;40.80;36.50;;;19.50;92.50;;;;;;5032121;28;20541;-49
2023/09/12 01:09:49;;;;;;;41.30;36.72;;;19.50;92.60;;;;;;5014454;28;20084;-47
2023/09/12 01:12:17;;;;;;;35.38;31.63;;;19.50;92.50;;;;;;5030450;28;20038;-47
2023/09/12 01:14:44;;;;;;;37.33;33.67;;;19.50;92.60;;;;;;5030843;28;20105;-46
2023/09/12 01:17:16;;;;;;;39.97;35.58;;;19.50;92.60;;;;;;5014380;28;20032;-47
2023/09/12 01:19:48;;;;;;;42.90;37.75;;;19.40;92.50;;;;;;5031922;28;20103;-47
2023/09/12 01:22:40;;;;;;;43.20;38.55;;;19.40;92.50;;;;;;5031745;28;20022;-48
2023/09/12 01:25:36;;;;;;;39.85;35.85;;;19.40;92.50;;;;;;5014343;28;20033;-47
2023/09/12 01:28:10;;;;;;;37.70;33.85;;;19.40;92.60;;;;;;5031676;28;20025;-47
2023/09/12 01:30:41;;;;;;;38.00;34.10;;;19.40;92.60;;;;;;5031753;28;20025;-46
2023/09/12 01:33:08;;;;;;;39.70;34.60;;;19.40;92.70;;;;;;5030864;28;20076;-50
2023/09/12 01:35:35;;;;;;;39.92;35.63;;;19.40;92.50;;;;;;5030251;28;20103;-49
2023/09/12 01:38:01;;;;;;;37.67;33.47;;;19.40;92.70;;;;;;5031113;28;20025;-50
2023/09/12 01:40:44;;;;;;;36.67;32.83;;;19.30;92.80;;;;;;5032060;28;20090;-52
2023/09/12 01:43:13;;;;;;;32.92;29.52;;;19.30;92.80;;;;;;5014776;28;20053;-50
2023/09/12 01:45:40;;;;;;;37.60;33.73;;;19.30;92.80;;;;;;5014818;28;20390;-50
2023/09/12 01:48:08;;;;;;;36.08;32.38;;;19.30;92.80;;;;;;5032151;28;20021;-51
2023/09/12 01:50:38;;;;;;;34.63;30.95;;;19.30;92.90;;;;;;5046814;28;20036;-51
2023/09/12 01:53:05;;;;;;;34.80;31.38;;;19.30;93.00;;;;;;5020746;28;20053;-50
2023/09/12 01:55:33;;;;;;;34.38;30.98;;;19.30;93.00;;;;;;5015314;28;20026;-52
2023/09/12 01:57:58;;;;;;;35.42;31.77;;;19.30;92.90;;;;;;5012160;28;20463;-50
2023/09/12 02:00:25;;;;;;;32.83;29.40;;;19.40;92.90;;;;;;4994659;28;20117;-50
2023/09/12 02:02:53;;;;;;;32.70;29.40;;;19.30;92.90;;;;;;4994574;28;20029;-47
2023/09/12 02:05:24;;;;;;;35.80;32.00;;;19.30;92.90;;;;;;5011144;28;20462;-51
2023/09/12 02:07:50;;;;;;;33.95;30.30;;;19.20;92.80;;;;;;5011269;28;20639;-50
2023/09/12 02:10:16;;;;;;;34.85;31.33;;;19.30;92.90;;;;;;5011533;28;20038;-48
2023/09/12 02:12:43;;;;;;;33.53;30.23;;;19.30;92.90;;;;;;5010603;28;20406;-50
2023/09/12 02:15:09;;;;;;;39.10;34.88;;;19.20;93.00;;;;;;5023004;28;20116;-48
2023/09/12 02:17:38;;;;;;;32.22;29.02;;;19.20;93.00;;;;;;5029104;28;20508;-49
2023/09/12 02:20:06;;;;;;;37.38;33.38;;;19.20;93.10;;;;;;5030376;28;20144;-48
2023/09/12 02:22:33;;;;;;;34.28;30.63;;;19.20;93.00;;;;;;5022527;28;20073;-53
2023/09/12 02:25:00;;;;;;;34.53;30.95;;;19.20;93.10;;;;;;4992850;28;20396;-53
2023/09/12 02:27:29;;;;;;;31.75;28.65;;;19.20;93.10;;;;;;5011457;28;20364;-54
2023/09/12 02:29:56;;;;;;;37.85;32.45;;;19.20;93.10;;;;;;5011215;28;20034;-54
2023/09/12 02:32:23;;;;;;;30.83;27.83;;;19.20;93.00;;;;;;5009799;28;20030;-52
2023/09/12 02:34:50;;;;;;;33.70;29.88;;;19.20;93.00;;;;;;5010006;28;20022;-51
2023/09/12 02:37:15;;;;;;;31.77;28.58;;;19.10;93.00;;;;;;5023704;28;20026;-49
2023/09/12 02:39:45;;;;;;;33.55;29.83;;;19.10;93.00;;;;;;5031211;28;20037;-50
2023/09/12 02:42:12;;;;;;;31.02;27.92;;;19.10;93.00;;;;;;5030932;28;20446;-49
2023/09/12 02:44:41;;;;;;;32.80;28.98;;;19.10;93.10;;;;;;5030918;28;20393;-50
2023/09/12 02:47:08;;;;;;;32.97;29.73;;;19.10;93.00;;;;;;5016195;28;20174;-51
2023/09/12 02:49:35;;;;;;;29.75;26.55;;;19.10;93.00;;;;;;5010256;28;20466;-50
2023/09/12 02:52:01;;;;;;;31.75;28.55;;;19.10;93.00;;;;;;5015084;28;20037;-51
2023/09/12 02:54:29;;;;;;;33.78;29.85;;;19.10;93.00;;;;;;5029420;28;20172;-50
2023/09/12 02:56:56;;;;;;;32.43;29.03;;;19.10;93.00;;;;;;5029214;28;20141;-50
2023/09/12 02:59:23;;;;;;;33.25;29.77;;;19.10;93.10;;;;;;5013269;28;20044;-52
2023/09/12 03:01:50;;;;;;;37.47;32.33;;;19.10;93.10;;;;;;5048348;28;20021;-50
2023/09/12 03:04:16;;;;;;;32.35;29.17;;;19.10;93.00;;;;;;5048757;28;20036;-51
2023/09/12 03:06:43;;;;;;;36.05;32.53;;;19.10;93.10;;;;;;5048634;28;20025;-50
2023/09/12 03:09:11;;;;;;;33.05;29.75;;;19.10;93.10;;;;;;5029297;28;20048;-50
2023/09/12 03:11:38;;;;;;;34.30;30.77;;;19.10;93.20;;;;;;5011737;28;20029;-51
2023/09/12 03:14:07;;;;;;;32.33;29.05;;;19.20;93.20;;;;;;5029006;28;20053;-48
2023/09/12 03:16:36;;;;;;;34.42;30.67;;;19.10;93.20;;;;;;5029098;28;20148;-53
2023/09/12 03:19:03;;;;;;;35.50;31.83;;;19.20;93.20;;;;;;5028949;28;20148;-52
2023/09/12 03:21:33;;;;;;;30.35;27.35;;;19.10;93.00;;;;;;5029535;28;20025;-48
2023/09/12 03:23:59;;;;;;;33.30;29.88;;;19.10;93.10;;;;;;5013540;28;20378;-50
2023/09/12 03:26:30;;;;;;;33.00;29.52;;;19.20;93.10;;;;;;5030781;28;20037;-50
2023/09/12 03:29:00;;;;;;;32.92;29.73;;;19.20;93.10;;;;;;5013336;28;20022;-49
2023/09/12 03:31:28;;;;;;;36.55;32.72;;;19.20;93.10;;;;;;5030771;28;20075;-50
2023/09/12 03:33:54;;;;;;;31.63;28.20;;;19.20;93.00;;;;;;5030323;28;20335;-50
2023/09/12 03:36:24;;;;;;;32.63;29.25;;;19.20;93.00;;;;;;5030288;28;20023;-49
2023/09/12 03:38:56;;;;;;;30.83;27.73;;;19.20;93.00;;;;;;5029336;28;20029;-52
2023/09/12 03:41:25;;;;;;;30.85;27.80;;;19.10;93.00;;;;;;5012859;28;20466;-48
2023/09/12 03:43:55;;;;;;;30.35;27.08;;;19.10;93.00;;;;;;5030273;28;20127;-51
2023/09/12 03:46:22;;;;;;;29.75;26.50;;;19.10;93.00;;;;;;5030051;28;20112;-50
2023/09/12 03:48:49;;;;;;;29.02;26.17;;;19.10;93.00;;;;;;5030299;28;20047;-48
2023/09/12 03:51:21;;;;;;;33.38;29.02;;;19.10;93.00;;;;;;5030511;28;20049;-48
2023/09/12 03:53:49;;;;;;;32.88;29.45;;;19.10;93.00;;;;;;5029771;28;20335;-49
2023/09/12 03:56:19;;;;;;;29.40;26.55;;;19.10;93.00;;;;;;5029932;28;20033;-54
2023/09/12 03:58:49;;;;;;;32.05;28.70;;;19.10;93.00;;;;;;5030164;28;20037;-50
2023/09/12 04:01:18;;;;;;;34.25;30.83;;;19.10;93.00;;;;;;5014961;28;20044;-49
2023/09/12 04:03:47;;;;;;;36.50;32.78;;;19.00;92.90;;;;;;5033888;28;20029;-50
2023/09/12 04:06:14;;;;;;;32.70;29.50;;;19.10;92.90;;;;;;5016368;28;20466;-51
2023/09/12 04:08:41;;;;;;;31.33;28.23;;;19.00;92.80;;;;;;5032390;28;20513;-50
2023/09/12 04:11:11;;;;;;;34.53;29.23;;;19.00;92.80;;;;;;5043034;28;20113;-49
2023/09/12 04:13:38;;;;;;;28.67;25.67;;;18.90;92.80;;;;;;5035860;28;20076;-50
2023/09/12 04:16:04;;;;;;;35.83;32.15;;;18.90;92.90;;;;;;5053487;28;20618;-51
2023/09/12 04:18:35;;;;;;;32.92;29.75;;;18.90;92.90;;;;;;5036636;28;20029;-53
2023/09/12 04:21:04;;;;;;;32.65;29.27;;;18.90;92.90;;;;;;5032170;28;20112;-49
2023/09/12 04:23:34;;;;;;;35.63;32.15;;;18.90;92.80;;;;;;5032168;28;20034;-53
2023/09/12 04:26:03;;;;;;;33.67;30.42;;;18.80;92.90;;;;;;5032063;28;20421;-49
2023/09/12 04:28:29;;;;;;;32.53;29.03;;;18.80;93.00;;;;;;5033304;28;20022;-48
2023/09/12 04:31:05;;;;;;;34.17;30.67;;;18.80;93.00;;;;;;5033011;28;20052;-50
2023/09/12 04:33:32;;;;;;;39.90;34.25;;;18.70;93.00;;;;;;5015764;28;20030;-51
2023/09/12 04:36:02;;;;;;;32.03;29.00;;;18.70;93.10;;;;;;5033390;28;20040;-49
2023/09/12 04:38:30;;;;;;;35.08;31.08;;;18.70;93.00;;;;;;5031929;28;20071;-53
2023/09/12 04:40:57;;;;;;;36.67;33.05;;;18.70;93.00;;;;;;5032075;28;20105;-46
2023/09/12 04:43:24;;;;;;;36.95;32.95;;;18.60;93.00;;;;;;5031545;28;20028;-48
2023/09/12 04:45:49;;;;;;;36.75;33.05;;;18.60;93.20;;;;;;5031782;28;20037;-53
2023/09/12 04:48:18;;;;;;;38.90;34.83;;;18.60;93.20;;;;;;5031696;28;20104;-49
2023/09/12 04:50:45;;;;;;;40.92;36.88;;;18.60;93.40;;;;;;5032920;28;20554;-50
2023/09/12 04:53:12;;;;;;;36.17;32.47;;;18.60;93.50;;;;;;5033185;28;20748;-47
2023/09/12 04:55:39;;;;;;;35.05;31.48;;;18.60;93.50;;;;;;5015245;28;20029;-52
2023/09/12 04:58:06;;;;;;;34.60;30.85;;;18.60;93.50;;;;;;5015473;28;20033;-52
2023/09/12 05:00:33;;;;;;;35.30;31.58;;;18.60;93.40;;;;;;5039894;28;20033;-50
2023/09/12 05:03:02;;;;;;;42.55;34.40;;;18.60;93.30;;;;;;5052582;28;20028;-48
2023/09/12 05:05:36;;;;;;;39.50;35.25;;;18.60;93.20;;;;;;5052193;28;20022;-49
2023/09/12 05:08:06;;;;;;;37.53;33.70;;;18.50;93.20;;;;;;5050945;28;20033;-50
2023/09/12 05:10:32;;;;;;;38.63;34.72;;;18.50;93.20;;;;;;5052529;28;20469;-46
2023/09/12 05:12:59;;;;;;;37.67;33.78;;;18.40;93.10;;;;;;5035053;28;20662;-46
2023/09/12 05:15:29;;;;;;;36.45;32.72;;;18.50;93.20;;;;;;5036648;28;20362;-50
2023/09/12 05:17:56;;;;;;;35.78;32.25;;;18.40;93.20;;;;;;5034775;28;20021;-48
2023/09/12 05:20:22;;;;;;;38.17;34.15;;;18.40;93.20;;;;;;5035808;28;20127;-46
2023/09/12 05:22:48;;;;;;;37.38;33.55;;;18.40;93.10;;;;;;5014843;28;20033;-46
2023/09/12 05:25:16;;;;;;;44.15;36.63;;;18.40;93.20;;;;;;5014762;28;20029;-46
2023/09/12 05:27:42;;;;;;;40.78;36.55;;;18.40;93.20;;;;;;5032335;28;20044;-49
2023/09/12 05:30:10;;;;;;;35.63;31.83;;;18.40;93.20;;;;;;5032203;28;20143;-47
2023/09/12 05:32:37;;;;;;;37.83;34.13;;;18.40;93.30;;;;;;5032088;28;20144;-48
2023/09/12 05:35:03;;;;;;;43.22;38.78;;;18.40;93.30;;;;;;5032075;28;20100;-47
2023/09/12 05:37:33;;;;;;;37.88;33.83;;;18.40;93.20;;;;;;5031797;28;20033;-48
2023/09/12 05:40:00;;;;;;;;;;;18.40;93.20;;;;;;5015092;28;20059;-47
2023/09/12 05:42:27;;;;;;;39.60;35.55;;;18.40;93.20;;;;;;5031872;28;20255;-46
2023/09/12 05:44:54;;;;;;;36.55;32.67;;;18.40;93.30;;;;;;5032007;28;20010;-46
2023/09/12 05:47:21;;;;;;;37.92;34.00;;;18.40;93.40;;;;;;5031922;28;20025;-49
2023/09/12 05:49:49;;;;;;;38.15;34.05;;;18.40;93.40;;;;;;5031961;28;20029;-46
2023/09/12 05:52:15;;;;;;;38.92;35.13;;;18.50;93.30;;;;;;5031011;28;20112;-49
2023/09/12 05:54:43;;;;;;;37.45;33.42;;;18.50;93.20;;;;;;5030549;28;20029;-50
2023/09/12 05:57:10;;;;;;;41.15;37.13;;;18.40;93.20;;;;;;5030205;28;20060;-49
2023/09/12 05:59:39;;;;;;;41.50;36.08;;;18.50;93.40;;;;;;5013961;28;20032;-46
2023/09/12 06:02:08;;;;;;;38.83;34.80;;;18.40;93.60;;;;;;5014069;28;20084;-46
2023/09/12 06:04:37;;;;;;;37.07;33.47;;;18.40;93.50;;;;;;5031269;28;20056;-47
2023/09/12 06:07:04;;;;;;;36.47;32.60;;;18.50;93.70;;;;;;5031217;28;20497;-48
2023/09/12 06:09:31;;;;;;;37.35;32.13;;;18.50;93.70;;;;;;5031516;28;20037;-47
2023/09/12 06:11:57;;;;;;;37.25;33.33;;;18.60;93.60;;;;;;5013853;28;20044;-46
2023/09/12 06:14:24;;;;;;;38.33;34.53;;;18.60;93.50;;;;;;5031401;28;20693;-46
2023/09/12 06:16:51;;;;;;;34.95;31.23;;;18.60;93.40;;;;;;5031473;28;20034;-52
2023/09/12 06:19:19;;;;;;;37.00;33.40;;;18.60;93.40;;;;;;5031294;28;20072;-51
2023/09/12 06:21:49;;;;;;;38.03;34.33;;;18.60;93.20;;;;;;5031236;28;20022;-50
2023/09/12 06:24:21;;;;;;;37.65;33.78;;;18.60;93.30;;;;;;5031148;28;20060;-45
2023/09/12 06:26:50;;;;;;;39.85;35.75;;;18.60;93.40;;;;;;5049676;28;20041;-46
2023/09/12 06:29:20;;;;;;;39.13;35.15;;;18.60;93.40;;;;;;5051047;28;20630;-46
2023/09/12 06:31:47;;;;;;;37.90;33.83;;;18.60;93.40;;;;;;5049909;28;20041;-49
2023/09/12 06:34:14;;;;;;;32.83;29.80;;;18.60;93.40;;;;;;5042475;28;20025;-51
2023/09/12 06:36:45;;;;;;;35.65;31.88;;;18.60;93.40;;;;;;5030916;28;20049;-47
2023/09/12 06:39:14;;;;;;;32.90;29.65;;;18.60;93.50;;;;;;5031005;28;20060;-45
2023/09/12 06:41:48;;;;;;;34.45;31.05;;;18.60;93.50;;;;;;5031138;28;20666;-45
2023/09/12 06:44:17;;;;;;;31.65;28.50;;;18.60;93.50;;;;;;5012725;28;20426;-47
2023/09/12 06:46:44;;;;;;;36.20;32.88;;;18.70;93.60;;;;;;5030108;28;20037;-47
2023/09/12 06:49:17;;;;;;;33.67;30.50;;;18.70;93.40;;;;;;5030004;28;20029;-50
2023/09/12 06:51:45;;;;;;;35.72;32.33;;;18.70;93.50;;;;;;5029750;28;20030;-47
2023/09/12 06:54:14;;;;;;;35.38;31.85;;;18.70;93.40;;;;;;5030086;28;20136;-47
2023/09/12 06:56:42;;;;;;;;;;;18.70;93.30;;;;;;5030502;28;20017;-46
2023/09/12 06:59:09;;;;;;;33.05;29.75;;;18.70;93.50;;;;;;5030310;28;19928;-46
2023/09/12 07:01:35;;;;;;;39.08;35.22;;;18.80;93.50;;;;;;5029341;28;20026;-49
2023/09/12 07:04:03;;;;;;;33.53;30.08;;;18.80;93.50;;;;;;5033079;28;20025;-48
2023/09/12 07:06:30;;;;;;;34.13;30.85;;;18.80;93.40;;;;;;5050638;28;20049;-50
2023/09/12 07:08:57;;;;;;;36.03;32.30;;;18.90;93.40;;;;;;5050187;28;20024;-52
2023/09/12 07:11:24;;;;;;;39.53;35.42;;;18.90;93.50;;;;;;5048117;28;20055;-47
2023/09/12 07:13:51;;;;;;;41.60;37.47;;;18.90;93.40;;;;;;5030858;28;20171;-49
2023/09/12 07:16:20;;;;;;;37.40;33.55;;;18.90;93.30;;;;;;5030961;28;20395;-50
2023/09/12 07:18:46;;;;;;;37.58;33.60;;;18.90;93.40;;;;;;5030166;28;20734;-48
2023/09/12 07:21:12;;;;;;;38.22;34.28;;;19.00;93.50;;;;;;5013126;28;20087;-49
2023/09/12 07:23:38;;;;;;;43.20;38.45;;;19.00;93.30;;;;;;5023160;28;20026;-48
2023/09/12 07:26:05;;;;;;;42.25;37.15;;;19.00;93.20;;;;;;5050583;28;20044;-51
2023/09/12 07:28:37;;;;;;;39.22;35.17;;;19.10;93.20;;;;;;5050518;28;20037;-50
2023/09/12 07:31:05;;;;;;;43.03;38.42;;;19.10;93.20;;;;;;5031229;28;20117;-49
2023/09/12 07:33:32;;;;;;;41.53;37.33;;;19.10;93.00;;;;;;5034876;28;20024;-51
2023/09/12 07:36:02;;;;;;;43.00;38.58;;;19.00;93.20;;;;;;5034807;28;20029;-49
2023/09/12 07:38:30;;;;;;;41.72;37.17;;;19.10;93.30;;;;;;5054347;28;20096;-51
2023/09/12 07:40:58;;;;;;;42.50;38.20;;;19.30;93.50;;;;;;5054554;28;20021;-50
2023/09/12 07:43:24;;;;;;;48.33;43.05;;;19.40;93.30;;;;;;5045426;28;20079;-52
2023/09/12 07:45:58;;;;;;;45.40;40.53;;;19.40;93.10;;;;;;5034540;28;20024;-50
2023/09/12 07:48:25;;;;;;;45.95;40.95;;;19.40;92.80;;;;;;5034274;28;20033;-54
2023/09/12 07:50:52;;;;;;;37.60;33.65;;;19.40;92.80;;;;;;5049067;28;20082;-50
2023/09/12 07:53:22;;;;;;;38.95;35.15;;;19.50;92.80;;;;;;5053774;28;20128;-53
2023/09/12 07:55:50;;;;;;;42.60;38.15;;;19.50;92.40;;;;;;5053977;28;20021;-53
2023/09/12 07:58:24;;;;;;;35.63;31.95;;;19.70;92.10;;;;;;5053966;28;20020;-54
2023/09/12 08:00:55;;;;;;;37.30;33.38;;;19.70;92.10;;;;;;5035052;28;20604;-50
2023/09/12 08:03:24;;;;;;;35.53;31.88;;;19.80;91.80;;;;;;5033899;28;20034;-52
2023/09/12 08:05:58;;;;;;;36.63;32.72;;;19.80;91.80;;;;;;5034101;28;20029;-51
2023/09/12 08:08:25;;;;;;;32.33;28.85;;;19.90;91.90;;;;;;5033480;28;20545;-53
2023/09/12 08:10:52;;;;;;;36.08;32.15;;;20.00;91.70;;;;;;5033893;28;20113;-49
2023/09/12 08:13:19;;;;;;;37.03;33.15;;;20.10;91.00;;;;;;5033846;28;20026;-55
2023/09/12 08:15:45;;;;;;;37.40;33.55;;;20.20;90.70;;;;;;5016361;28;20026;-52
2023/09/12 08:18:15;;;;;;;33.95;30.60;;;20.40;90.80;;;;;;5033756;28;20034;-56
2023/09/12 08:20:44;;;;;;;;;;;20.40;90.20;;;;;;5034138;28;20028;-55
2023/09/12 08:23:10;;;;;;;37.65;33.92;;;20.40;89.80;;;;;;5040169;28;19909;-54
2023/09/12 08:25:37;;;;;;;33.28;29.92;;;20.40;89.70;;;;;;5053415;28;20095;-55
2023/09/12 08:28:04;;;;;;;32.53;29.20;;;20.40;89.50;;;;;;5037197;28;20033;-54
2023/09/12 08:30:29;;;;;;;38.92;34.78;;;20.50;89.70;;;;;;5033065;28;20060;-56
2023/09/12 08:32:56;;;;;;;36.85;31.38;;;20.60;89.30;;;;;;5033454;28;20356;-55
2023/09/12 08:35:23;;;;;;;31.73;28.70;;;20.70;88.90;;;;;;5032973;28;20037;-53
2023/09/12 08:37:52;;;;;;;32.60;29.17;;;20.80;88.80;;;;;;5052419;28;20025;-55
2023/09/12 08:40:19;;;;;;;32.28;28.98;;;20.90;87.80;;;;;;5052817;28;20025;-54
2023/09/12 08:42:48;;;;;;;31.48;28.33;;;21.00;87.40;;;;;;5043101;28;20116;-54
2023/09/12 08:45:33;;;;;;;33.05;29.85;;;21.00;86.20;;;;;;5033109;28;20072;-56
2023/09/12 08:48:00;;;;;;;33.72;30.45;;;21.10;86.30;;;;;;5031343;28;20029;-55
2023/09/12 08:50:31;;;;;;;30.42;27.42;;;21.10;85.80;;;;;;5033171;28;20025;-52
2023/09/12 08:52:57;;;;;;;29.35;26.52;;;21.00;86.20;;;;;;5033015;28;20521;-58
2023/09/12 08:55:23;;;;;;;27.35;24.55;;;21.10;86.50;;;;;;5033314;28;20090;-56
2023/09/12 08:57:53;;;;;;;30.17;27.20;;;21.20;86.40;;;;;;5033076;28;20037;-56
2023/09/12 09:00:22;;;;;;;29.13;26.10;;;21.30;86.00;;;;;;5032805;28;20049;-54
2023/09/12 09:02:49;;;;;;;30.73;27.73;;;21.40;85.30;;;;;;5032440;28;20021;-55
2023/09/12 09:05:20;;;;;;;27.33;24.60;;;21.40;85.80;;;;;;5031798;28;20041;-56
2023/09/12 09:07:49;;;;;;;25.33;22.75;;;21.70;85.40;;;;;;5032328;28;20347;-55
2023/09/12 09:10:20;;;;;;;24.15;21.65;;;21.80;84.20;;;;;;5038837;28;20116;-55
2023/09/12 09:12:47;;;;;;;24.58;22.17;;;21.90;83.40;;;;;;5051171;28;20351;-56
2023/09/12 09:15:35;;;;;;;25.13;22.83;;;22.10;83.40;;;;;;5052119;28;20108;-56
2023/09/12 09:18:05;;;;;;;23.38;21.00;;;22.20;83.10;;;;;;5039592;28;20359;-55
2023/09/12 09:20:37;;;;;;;21.10;18.88;;;22.50;82.60;;;;;;5031963;28;20385;-56
2023/09/12 09:23:08;;;;;;;25.05;22.38;;;22.70;82.20;;;;;;5032432;28;20033;-55
2023/09/12 09:25:52;;;;;;;22.30;20.17;;;22.90;79.40;;;;;;5032380;28;20037;-56
2023/09/12 09:28:36;;;;;;;21.95;18.73;;;23.10;81.00;;;;;;5024715;28;20084;-57
2023/09/12 09:31:07;;;;;;;20.92;18.67;;;23.60;79.70;;;;;;5032483;28;20046;-57
2023/09/12 09:33:37;;;;;;;21.48;19.40;;;23.80;78.50;;;;;;5032195;28;20700;-57
2023/09/12 09:36:04;;;;;;;20.75;18.75;;;24.10;79.00;;;;;;5032077;28;20014;-57
2023/09/12 09:38:31;;;;;;;18.60;16.88;;;23.90;77.00;;;;;;5032159;28;20104;-57
2023/09/12 09:40:58;;;;;;;19.63;17.83;;;23.80;77.50;;;;;;5032413;28;20049;-55
2023/09/12 09:43:24;;;;;;;17.25;15.60;;;23.60;76.30;;;;;;5032272;28;20069;-54
2023/09/12 09:45:52;;;;;;;20.10;18.13;;;23.50;76.90;;;;;;5052122;28;20132;-57
2023/09/12 09:48:24;;;;;;;16.30;14.60;;;23.40;77.00;;;;;;5040981;28;20079;-57
2023/09/12 09:50:51;;;;;;;18.67;16.80;;;23.30;77.20;;;;;;5031666;28;20029;-56
2023/09/12 09:53:21;;;;;;;20.13;17.38;;;23.10;77.90;;;;;;4999276;28;20054;-57
2023/09/12 09:55:51;;;;;;;;;;;23.00;77.10;;;;;;5012075;28;20161;-56
2023/09/12 09:58:18;;;;;;;15.98;14.45;;;22.80;78.90;;;;;;5030553;28;19997;-56
2023/09/12 10:00:44;;;;;;;18.88;16.42;;;22.70;80.10;;;;;;5020471;28;20048;-56
2023/09/12 10:03:12;;;;;;;16.00;14.40;;;22.60;80.00;;;;;;5011922;28;20104;-55
2023/09/12 10:05:41;;;;;;;19.52;17.73;;;22.70;80.20;;;;;;5011870;28;20061;-57
2023/09/12 10:08:10;;;;;;;17.30;15.50;;;22.40;79.10;;;;;;5011774;28;20030;-56
2023/09/12 10:10:38;;;;;;;;;;;22.40;79.70;;;;;;5012214;28;20083;-57
2023/09/12 10:13:06;;;;;;;17.70;15.90;;;22.40;79.50;;;;;;5012112;28;19917;-57
2023/09/12 10:15:36;;;;;;;18.77;16.70;;;22.30;80.00;;;;;;5011960;28;20080;-57
2023/09/12 10:18:08;;;;;;;17.38;15.65;;;22.40;80.00;;;;;;5011618;28;20084;-56
2023/09/12 10:20:41;;;;;;;16.50;14.90;;;22.40;80.30;;;;;;5011717;28;20033;-57
2023/09/12 10:23:20;;;;;;;19.15;17.25;;;22.50;80.70;;;;;;4994538;28;20052;-56
2023/09/12 10:25:49;;;;;;;15.77;14.15;;;22.40;80.10;;;;;;5011709;28;20030;-57
2023/09/12 10:28:17;;;;;;;16.48;14.77;;;22.40;80.50;;;;;;5026299;28;20025;-57
2023/09/12 10:30:44;;;;;;;18.25;16.30;;;22.40;80.60;;;;;;5031336;28;20025;-56
2023/09/12 10:33:13;;;;;;;18.42;16.73;;;22.40;81.00;;;;;;5015269;28;20026;-56
2023/09/12 10:35:39;;;;;;;16.88;15.27;;;22.50;80.60;;;;;;5011782;28;20026;-56
2023/09/12 10:38:08;;;;;;;20.63;18.60;;;22.50;80.80;;;;;;5011525;28;20050;-57
2023/09/12 10:40:38;;;;;;;19.67;17.77;;;22.50;80.20;;;;;;5011155;28;20033;-57
2023/09/12 10:43:05;;;;;;;18.70;16.70;;;22.60;80.10;;;;;;5011257;28;20076;-56
2023/09/12 10:45:33;;;;;;;17.30;15.73;;;22.50;80.60;;;;;;4994244;28;20553;-57
2023/09/12 10:48:01;;;;;;;18.23;16.40;;;22.50;80.90;;;;;;5010935;28;20698;-55
2023/09/12 10:50:29;;;;;;;18.90;16.13;;;22.60;81.10;;;;;;5012244;28;20026;-57
2023/09/12 10:53:07;;;;;;;20.05;18.05;;;22.70;80.80;;;;;;5024932;28;20048;-57
2023/09/12 10:55:34;;;;;;;22.08;19.85;;;22.80;80.60;;;;;;5050851;28;20025;-56
2023/09/12 10:58:10;;;;;;;21.75;19.65;;;22.70;80.80;;;;;;5050852;28;20036;-57
2023/09/12 11:00:40;;;;;;;22.15;19.98;;;22.90;80.70;;;;;;5030750;28;20079;-57
2023/09/12 11:03:43;;;;;;;24.13;20.85;;;22.90;80.90;;;;;;5030635;28;20423;-56
2023/09/12 11:06:22;;;;;;;21.67;19.67;;;23.10;81.10;;;;;;5029864;28;20494;-56
2023/09/12 11:09:28;;;;;;;18.67;16.83;;;23.40;80.00;;;;;;5030957;28;20616;-57
2023/09/12 11:12:02;;;;;;;17.60;15.73;;;23.50;78.60;;;;;;5026992;28;20099;-57
2023/09/12 11:14:33;;;;;;;21.13;19.02;;;23.90;77.60;;;;;;5030877;28;20049;-55
2023/09/12 11:17:08;;;;;;;21.60;19.60;;;23.70;77.70;;;;;;5030742;28;20025;-54
2023/09/12 11:19:53;;;;;;;20.63;18.52;;;23.70;77.90;;;;;;5013473;28;20609;-58
2023/09/12 11:22:29;;;;;;;18.55;16.85;;;23.90;78.20;;;;;;5031061;28;20120;-57
2023/09/12 11:24:55;;;;;;;16.42;14.65;;;23.90;77.60;;;;;;5013388;28;20084;-55
2023/09/12 11:27:49;;;;;;;14.88;13.20;;;23.90;77.50;;;;;;5030769;28;20037;-58
2023/09/12 11:30:15;;;;;;;13.63;12.32;;;23.80;76.40;;;;;;5030669;28;20068;-59
2023/09/12 11:32:45;;;;;;;15.15;13.65;;;23.90;77.40;;;;;;5030718;28;20421;-57
2023/09/12 11:35:11;;;;;;;17.33;15.52;;;24.20;77.10;;;;;;5030571;28;20103;-57
2023/09/12 11:37:37;;;;;;;15.77;14.27;;;24.30;76.00;;;;;;5030485;28;20427;-57
2023/09/12 11:40:33;;;;;;;16.60;14.98;;;24.40;75.60;;;;;;5013174;28;20037;-56
2023/09/12 11:43:00;;;;;;;14.18;12.77;;;24.30;74.40;;;;;;5030403;28;20118;-56
2023/09/12 11:45:27;;;;;;;18.17;16.30;;;24.00;75.30;;;;;;5030490;28;20164;-57
2023/09/12 11:47:54;;;;;;;14.73;13.32;;;23.90;75.40;;;;;;5030213;28;20079;-55
2023/09/12 11:50:35;;;;;;;14.48;13.05;;;23.90;76.50;;;;;;5030559;28;20093;-58
2023/09/12 11:53:22;;;;;;;12.82;11.60;;;23.90;77.00;;;;;;5012654;28;20165;-54
2023/09/12 11:55:54;;;;;;;11.77;10.68;;;24.20;76.20;;;;;;5030182;28;20092;-57
2023/09/12 11:58:21;;;;;;;14.10;12.60;;;24.40;76.50;;;;;;5030186;28;20026;-56
2023/09/12 12:00:52;;;;;;;14.48;13.02;;;24.30;75.30;;;;;;5030107;28;20108;-54
2023/09/12 12:03:25;;;;;;;10.98;9.93;;;24.30;75.30;;;;;;5030195;28;20025;-57
2023/09/12 12:05:57;;;;;;;13.88;12.48;;;24.30;75.80;;;;;;5013051;28;20033;-55
2023/09/12 12:08:27;;;;;;;17.63;15.75;;;24.20;75.60;;;;;;5030232;28;20030;-55
2023/09/12 12:10:54;;;;;;;13.73;12.48;;;24.10;75.30;;;;;;5012914;28;20063;-58
2023/09/12 12:13:22;;;;;;;14.25;12.60;;;24.00;76.00;;;;;;5029966;28;20025;-57
2023/09/12 12:15:49;;;;;;;16.90;15.30;;;24.00;76.10;;;;;;5029906;28;20025;-57
2023/09/12 12:18:16;;;;;;;14.73;11.93;;;23.80;76.50;;;;;;5030085;28;20370;-57
2023/09/12 12:20:43;;;;;;;13.95;12.63;;;23.70;77.70;;;;;;5012756;28;20042;-54
2023/09/12 12:23:10;;;;;;;16.55;14.82;;;23.70;77.70;;;;;;5033611;28;20095;-57
2023/09/12 12:25:40;;;;;;;14.57;13.10;;;23.90;77.50;;;;;;5016311;28;20028;-59
2023/09/12 12:28:06;;;;;;;13.32;11.80;;;24.00;77.90;;;;;;5033762;28;20037;-57
2023/09/12 12:30:36;;;;;;;14.25;12.52;;;24.30;77.30;;;;;;5033539;28;20083;-57
2023/09/12 12:33:08;;;;;;;16.58;14.95;;;24.40;77.60;;;;;;5033555;28;20039;-58
2023/09/12 12:35:36;;;;;;;13.90;12.50;;;24.60;75.00;;;;;;5033506;28;20037;-57
2023/09/12 12:38:03;;;;;;;14.05;12.65;;;24.60;75.70;;;;;;5016052;28;20116;-57